createdAt,value
2018-10-02T00:00:42.009Z,19.30
2018-10-02T00:03:10.598Z,19.30
2018-10-02T00:05:39.205Z,19.30
2018-10-02T00:08:07.818Z,19.30
2018-10-02T00:10:36.615Z,19.30
2018-10-02T00:13:10.965Z,19.30
2018-10-02T00:15:39.663Z,19.30
2018-10-02T00:18:08.265Z,19.30
2018-10-02T00:20:36.977Z,19.30
2018-10-02T00:23:05.663Z,19.30
2018-10-02T00:25:34.258Z,19.30
2018-10-02T00:28:02.918Z,19.30
2018-10-02T00:30:31.752Z,19.20
2018-10-02T00:33:00.833Z,19.30
2018-10-02T00:35:29.642Z,19.20
2018-10-02T00:37:58.252Z,19.20
2018-10-02T00:40:26.893Z,19.30
2018-10-02T00:42:55.675Z,19.30
2018-10-02T00:45:24.369Z,19.30
2018-10-02T00:47:53.065Z,19.30
2018-10-02T00:50:21.818Z,19.30
2018-10-02T00:52:50.752Z,19.30
2018-10-02T00:55:19.406Z,19.20
2018-10-02T00:57:48.139Z,19.20
2018-10-02T01:00:16.854Z,19.20
2018-10-02T01:02:45.810Z,19.20
2018-10-02T01:05:14.600Z,19.20
2018-10-02T01:07:43.553Z,19.20
2018-10-02T01:10:12.756Z,19.20
2018-10-02T01:12:41.760Z,19.20
2018-10-02T01:15:10.785Z,19.20
2018-10-02T01:17:39.658Z,19.20
2018-10-02T01:20:09.434Z,19.20
2018-10-02T01:22:38.417Z,19.20
2018-10-02T01:25:07.371Z,19.20
2018-10-02T01:27:36.484Z,19.20
2018-10-02T01:30:05.237Z,19.10
2018-10-02T01:32:34.107Z,19.20
2018-10-02T01:35:02.905Z,19.20
2018-10-02T01:37:31.822Z,19.20
2018-10-02T01:40:00.688Z,19.20
2018-10-02T01:42:29.501Z,19.20
2018-10-02T01:44:58.375Z,19.20
2018-10-02T01:47:27.390Z,19.20
2018-10-02T01:49:56.365Z,19.10
2018-10-02T01:52:25.286Z,19.10
2018-10-02T01:54:54.186Z,19.10
2018-10-02T01:57:23.030Z,19.10
2018-10-02T01:59:51.924Z,19.10
2018-10-02T02:02:20.665Z,19.10
2018-10-02T02:04:49.851Z,19.20
2018-10-02T02:07:18.821Z,19.10
2018-10-02T02:09:47.718Z,19.10
2018-10-02T02:12:16.613Z,19.00
2018-10-02T02:14:45.477Z,19.10
2018-10-02T02:17:14.375Z,19.10
2018-10-02T02:19:43.168Z,19.10
2018-10-02T02:22:11.989Z,19.00
2018-10-02T02:24:40.874Z,19.10
2018-10-02T02:27:09.936Z,19.10
2018-10-02T02:29:38.918Z,19.10
2018-10-02T02:32:08.024Z,19.10
2018-10-02T02:34:37.085Z,19.00
2018-10-02T02:37:06.154Z,19.00
2018-10-02T02:39:35.392Z,19.00
2018-10-02T02:42:04.103Z,19.00
2018-10-02T02:44:33.023Z,19.00
2018-10-02T02:47:06.968Z,19.10
2018-10-02T02:49:41.755Z,19.00
2018-10-02T02:52:11.267Z,19.00
2018-10-02T02:54:40.244Z,19.00
2018-10-02T02:57:09.155Z,19.00
2018-10-02T02:59:38.342Z,19.00
2018-10-02T03:02:07.332Z,19.00
2018-10-02T03:04:36.117Z,19.00
2018-10-02T03:07:04.703Z,19.00
2018-10-02T03:09:33.586Z,19.00
2018-10-02T03:12:02.555Z,19.00
2018-10-02T03:14:31.489Z,19.00
2018-10-02T03:17:00.169Z,19.00
2018-10-02T03:19:28.958Z,19.00
2018-10-02T03:21:57.836Z,19.00
2018-10-02T03:24:26.547Z,19.00
2018-10-02T03:26:55.323Z,19.00
2018-10-02T03:29:24.261Z,19.00
2018-10-02T03:31:53.115Z,18.90
2018-10-02T03:34:22.009Z,18.90
2018-10-02T03:36:50.797Z,18.90
2018-10-02T03:39:19.391Z,18.90
2018-10-02T03:41:48.161Z,18.90
2018-10-02T03:44:17.378Z,18.90
2018-10-02T03:46:46.245Z,19.00
2018-10-02T03:49:15.007Z,18.90
2018-10-02T03:51:44.071Z,19.00
2018-10-02T03:54:12.918Z,18.90
2018-10-02T03:56:41.616Z,19.00
2018-10-02T03:59:10.306Z,18.90
2018-10-02T04:01:39.152Z,18.90
2018-10-02T04:04:08.008Z,18.90
2018-10-02T04:06:36.998Z,18.90
2018-10-02T04:09:09.455Z,18.90
2018-10-02T04:11:38.684Z,18.90
2018-10-02T04:14:08.215Z,18.90
2018-10-02T04:16:37.075Z,18.90
2018-10-02T04:19:06.409Z,18.90
2018-10-02T04:21:36.197Z,18.90
2018-10-02T04:24:08.060Z,18.90
2018-10-02T04:26:37.799Z,18.90
2018-10-02T04:29:09.054Z,18.90
2018-10-02T04:31:38.752Z,18.90
2018-10-02T04:34:07.870Z,18.90
2018-10-02T04:36:36.986Z,18.90
2018-10-02T04:39:08.041Z,18.90
2018-10-02T04:41:37.411Z,18.90
2018-10-02T04:44:06.440Z,18.90
2018-10-02T04:46:35.470Z,18.90
2018-10-02T04:49:04.347Z,18.90
2018-10-02T04:51:33.418Z,18.90
2018-10-02T04:54:02.661Z,18.90
2018-10-02T04:56:31.460Z,18.90
2018-10-02T04:59:00.401Z,18.80
2018-10-02T05:01:29.255Z,18.80
2018-10-02T05:03:58.717Z,18.90
2018-10-02T05:06:27.646Z,18.90
2018-10-02T05:08:57.022Z,18.90
2018-10-02T05:11:25.897Z,18.90
2018-10-02T05:13:54.570Z,18.80
2018-10-02T05:16:23.300Z,18.90
2018-10-02T05:18:51.988Z,18.90
2018-10-02T05:21:20.964Z,18.90
2018-10-02T05:23:49.849Z,18.90
2018-10-02T05:26:18.588Z,18.90
2018-10-02T05:28:47.536Z,18.90
2018-10-02T05:31:16.424Z,18.90
2018-10-02T05:33:45.106Z,18.90
2018-10-02T05:36:13.826Z,18.80
2018-10-02T05:38:42.597Z,18.80
2018-10-02T05:41:11.610Z,18.80
2018-10-02T05:43:40.362Z,18.90
2018-10-02T05:46:09.056Z,18.90
2018-10-02T05:48:37.850Z,18.90
2018-10-02T05:51:06.621Z,18.90
2018-10-02T05:53:35.738Z,18.80
2018-10-02T05:56:04.740Z,18.80
2018-10-02T05:58:33.546Z,18.80
2018-10-02T06:01:02.188Z,18.90
2018-10-02T06:03:31.128Z,18.80
2018-10-02T06:05:59.877Z,18.90
2018-10-02T06:08:28.689Z,18.90
2018-10-02T06:10:57.476Z,18.90
2018-10-02T06:13:26.362Z,18.90
2018-10-02T06:15:55.348Z,18.90
2018-10-02T06:18:24.103Z,18.90
2018-10-02T06:20:52.925Z,18.90
2018-10-02T06:23:21.955Z,18.90
2018-10-02T06:25:50.746Z,18.90
2018-10-02T06:28:19.602Z,18.90
2018-10-02T06:30:48.528Z,18.90
2018-10-02T06:33:17.377Z,18.90
2018-10-02T06:35:46.285Z,18.90
2018-10-02T06:38:15.151Z,18.90
2018-10-02T06:40:43.886Z,18.90
2018-10-02T06:43:12.631Z,18.90
2018-10-02T06:45:45.994Z,18.90
2018-10-02T06:48:14.830Z,18.90
2018-10-02T06:50:44.185Z,18.90
2018-10-02T06:53:13.116Z,18.90
2018-10-02T06:55:41.912Z,18.90
2018-10-02T06:58:10.591Z,18.90
2018-10-02T07:00:39.379Z,18.90
2018-10-02T07:03:08.180Z,18.90
2018-10-02T07:05:37.191Z,18.90
2018-10-02T07:08:06.193Z,18.90
2018-10-02T07:10:35.068Z,18.90
2018-10-02T07:13:04.056Z,18.80
2018-10-02T07:15:33.068Z,18.90
2018-10-02T07:18:02.073Z,18.90
2018-10-02T07:20:30.923Z,18.90
2018-10-02T07:22:59.939Z,18.90
2018-10-02T07:25:28.751Z,18.90
2018-10-02T07:27:57.797Z,18.90
2018-10-02T07:30:26.722Z,18.90
2018-10-02T07:32:55.749Z,18.90
2018-10-02T07:35:24.707Z,18.90
2018-10-02T07:37:53.899Z,18.90
2018-10-02T07:40:22.901Z,18.90
2018-10-02T07:42:52.099Z,18.90
2018-10-02T07:45:21.121Z,18.90
2018-10-02T07:47:50.082Z,18.90
2018-10-02T07:50:19.071Z,18.90
2018-10-02T07:52:47.982Z,18.90
2018-10-02T07:55:16.963Z,18.90
2018-10-02T07:57:45.853Z,18.90
2018-10-02T08:00:15.065Z,19.00
2018-10-02T08:02:44.071Z,18.90
2018-10-02T08:05:12.960Z,18.90
2018-10-02T08:07:41.638Z,18.90
2018-10-02T08:10:10.431Z,19.00
2018-10-02T08:12:39.217Z,19.00
2018-10-02T08:15:07.910Z,19.00
2018-10-02T08:17:36.662Z,19.00
2018-10-02T08:20:05.521Z,19.00
2018-10-02T08:22:34.586Z,19.00
2018-10-02T08:25:03.800Z,19.00
2018-10-02T08:27:32.798Z,19.00
2018-10-02T08:30:01.825Z,18.90
2018-10-02T08:32:30.254Z,19.00
2018-10-02T08:34:59.021Z,19.00
2018-10-02T08:37:27.724Z,19.00
2018-10-02T08:39:56.524Z,19.10
2018-10-02T08:42:25.403Z,19.00
2018-10-02T08:44:54.607Z,19.10
2018-10-02T08:47:23.446Z,19.00
2018-10-02T08:49:52.280Z,19.10
2018-10-02T08:52:21.132Z,19.10
2018-10-02T08:54:50.018Z,19.10
2018-10-02T08:57:18.963Z,19.10
2018-10-02T08:59:47.751Z,19.10
2018-10-02T09:02:16.643Z,19.20
2018-10-02T09:04:45.459Z,19.10
2018-10-02T09:07:14.105Z,19.10
2018-10-02T09:09:43.134Z,19.10
2018-10-02T09:12:11.801Z,19.20
2018-10-02T09:14:40.805Z,19.20
2018-10-02T09:17:09.508Z,19.10
2018-10-02T09:19:38.484Z,19.10
2018-10-02T09:22:07.455Z,19.10
2018-10-02T09:24:36.165Z,19.20
2018-10-02T09:27:05.118Z,19.20
2018-10-02T09:29:37.838Z,19.20
2018-10-02T09:32:11.983Z,19.20
2018-10-02T09:34:46.185Z,19.20
2018-10-02T09:37:20.229Z,19.10
2018-10-02T09:39:54.687Z,19.20
2018-10-02T09:42:28.876Z,19.10
2018-10-02T09:44:57.724Z,19.20
2018-10-02T09:47:26.627Z,19.20
2018-10-02T09:49:55.795Z,19.20
2018-10-02T09:52:24.504Z,19.20
2018-10-02T09:54:53.209Z,19.20
2018-10-02T09:57:21.914Z,19.20
2018-10-02T09:59:50.760Z,19.20
2018-10-02T10:02:24.900Z,19.20
2018-10-02T10:04:53.553Z,19.20
2018-10-02T10:07:22.441Z,19.20
2018-10-02T10:09:51.429Z,19.20
2018-10-02T10:12:20.233Z,19.10
2018-10-02T10:14:49.003Z,19.20
2018-10-02T10:17:17.885Z,19.20
2018-10-02T10:19:46.583Z,19.10
2018-10-02T10:22:15.808Z,19.20
2018-10-02T10:24:44.577Z,19.20
2018-10-02T10:27:13.575Z,19.30
2018-10-02T10:29:42.392Z,19.20
2018-10-02T10:32:11.420Z,19.20
2018-10-02T10:34:40.221Z,19.20
2018-10-02T10:37:09.253Z,19.20
2018-10-02T10:39:37.947Z,19.10
2018-10-02T10:42:06.744Z,19.10
2018-10-02T10:44:35.610Z,19.20
2018-10-02T10:47:04.697Z,19.20
2018-10-02T10:49:33.282Z,19.20
2018-10-02T10:52:02.134Z,19.20
2018-10-02T10:54:31.043Z,19.10
2018-10-02T10:56:59.962Z,19.20
2018-10-02T10:59:28.884Z,19.20
2018-10-02T11:01:57.532Z,19.10
2018-10-02T11:04:26.468Z,19.20
2018-10-02T11:06:55.567Z,19.10
2018-10-02T11:09:24.470Z,19.10
2018-10-02T11:11:53.639Z,19.10
2018-10-02T11:14:22.629Z,19.10
2018-10-02T11:16:51.532Z,19.10
2018-10-02T11:19:20.526Z,19.10
2018-10-02T11:21:49.424Z,19.10
2018-10-02T11:24:18.318Z,19.10
2018-10-02T11:26:47.280Z,19.10
2018-10-02T11:29:16.232Z,19.10
2018-10-02T11:31:45.189Z,19.10
2018-10-02T11:34:14.069Z,19.10
2018-10-02T11:36:43.086Z,19.10
2018-10-02T11:39:11.970Z,19.10
2018-10-02T11:41:40.957Z,19.10
2018-10-02T11:44:10.021Z,19.10
2018-10-02T11:46:39.048Z,19.10
2018-10-02T11:49:08.113Z,19.10
2018-10-02T11:51:37.080Z,19.10
2018-10-02T11:54:06.015Z,19.10
2018-10-02T11:56:35.032Z,19.10
2018-10-02T11:59:04.069Z,19.10
2018-10-02T12:01:33.112Z,19.10
2018-10-02T12:04:02.109Z,19.10
2018-10-02T12:06:31.453Z,19.10
2018-10-02T12:09:00.634Z,19.10
2018-10-02T12:11:29.925Z,19.10
2018-10-02T12:13:58.925Z,19.10
2018-10-02T12:16:27.701Z,19.10
2018-10-02T12:18:56.573Z,19.10
2018-10-02T12:21:25.526Z,19.20
2018-10-02T12:23:54.492Z,19.10
2018-10-02T12:26:23.178Z,19.10
2018-10-02T12:28:51.940Z,19.10
2018-10-02T12:31:21.075Z,19.10
2018-10-02T12:33:49.954Z,19.10
2018-10-02T12:36:18.825Z,19.10
2018-10-02T12:38:47.644Z,19.10
2018-10-02T12:41:16.500Z,19.20
2018-10-02T12:43:45.325Z,19.10
2018-10-02T12:46:14.174Z,19.10
2018-10-02T12:48:42.976Z,19.10
2018-10-02T12:51:11.990Z,19.10
2018-10-02T12:53:41.597Z,19.20
2018-10-02T12:56:10.384Z,19.10
2018-10-02T12:58:40.020Z,19.20
2018-10-02T13:01:09.045Z,19.10
2018-10-02T13:03:37.874Z,19.10
2018-10-02T13:06:06.753Z,19.10
2018-10-02T13:08:35.859Z,19.20
2018-10-02T13:11:04.615Z,19.10
2018-10-02T13:13:33.551Z,19.20
2018-10-02T13:16:02.547Z,19.10
2018-10-02T13:22:13.961Z,19.10
2018-10-02T13:24:43.102Z,19.10
2018-10-02T13:27:12.124Z,19.10
2018-10-02T13:29:41.360Z,19.10
2018-10-02T13:32:10.269Z,19.10
2018-10-02T13:34:43.059Z,19.10
2018-10-02T13:37:11.740Z,19.10
2018-10-02T13:39:40.478Z,19.10
2018-10-02T13:42:09.260Z,19.10
2018-10-02T13:44:38.122Z,19.10
2018-10-02T13:47:07.105Z,19.00
2018-10-02T13:49:35.743Z,19.10
2018-10-02T13:52:04.542Z,19.10
2018-10-02T13:54:33.384Z,19.10
2018-10-02T13:57:02.216Z,19.10
2018-10-02T13:59:31.097Z,19.10
2018-10-02T14:01:59.946Z,19.00
2018-10-02T14:04:28.791Z,19.10
2018-10-02T15:11:15.915Z,19.00
2018-10-02T15:23:50.594Z,19.00
2018-10-02T16:02:54.488Z,18.90
2018-10-02T16:11:23.775Z,19.00
2018-10-02T16:13:52.601Z,19.00
2018-10-02T16:17:22.226Z,18.90
2018-10-02T16:19:51.116Z,18.90
2018-10-02T16:22:20.201Z,19.00
2018-10-02T16:24:50.011Z,19.00
2018-10-02T16:27:18.892Z,19.00
2018-10-02T16:29:47.861Z,19.00
2018-10-02T16:32:16.892Z,18.90
2018-10-02T16:34:49.294Z,18.90
2018-10-02T16:37:14.761Z,18.90
2018-10-02T16:39:43.743Z,18.90
2018-10-02T16:42:13.056Z,18.90
2018-10-02T16:44:42.071Z,18.90
2018-10-02T16:59:23.539Z,19.00
2018-10-02T17:05:49.249Z,18.90
2018-10-02T17:08:28.427Z,18.90
2018-10-02T17:11:50.706Z,18.90
2018-10-02T17:32:12.845Z,18.90
2018-10-02T17:34:42.129Z,18.90
2018-10-02T17:38:50.818Z,18.90
2018-10-02T17:48:19.605Z,18.90
2018-10-02T17:50:48.403Z,18.90
2018-10-02T17:53:17.455Z,18.90
2018-10-02T17:55:46.482Z,18.80
2018-10-02T17:58:15.482Z,18.90
2018-10-02T18:00:44.481Z,18.90
2018-10-02T18:03:13.461Z,18.90
2018-10-02T18:05:42.461Z,18.90
2018-10-02T18:08:11.766Z,18.90
2018-10-02T18:10:40.453Z,18.90
2018-10-02T18:13:09.316Z,18.90
2018-10-02T18:15:38.091Z,18.90
2018-10-02T18:18:29.648Z,18.90
2018-10-02T18:50:22.545Z,18.80
2018-10-02T18:52:51.608Z,18.90
2018-10-02T18:55:20.416Z,18.80
2018-10-02T18:57:50.425Z,18.80
2018-10-02T19:00:19.412Z,18.80
2018-10-02T19:02:48.211Z,18.90
2018-10-02T19:05:17.140Z,18.80
2018-10-02T19:07:46.024Z,18.90
2018-10-02T19:32:24.426Z,18.80
2018-10-02T19:41:37.340Z,18.80
2018-10-02T20:17:21.346Z,18.80
2018-10-02T20:23:37.158Z,18.80
2018-10-02T20:34:58.029Z,18.80
2018-10-02T20:43:54.372Z,18.80
2018-10-02T20:46:23.458Z,18.70
2018-10-02T20:48:52.267Z,18.80
2018-10-02T20:51:20.883Z,18.80
2018-10-02T20:53:49.762Z,18.70
2018-10-02T20:56:18.528Z,18.80
2018-10-02T20:58:47.329Z,18.80
2018-10-02T21:01:16.110Z,18.80
2018-10-02T21:03:45.091Z,18.70
2018-10-02T21:06:13.960Z,18.80
2018-10-02T21:08:42.920Z,18.80
2018-10-02T21:11:12.064Z,18.80
2018-10-02T21:13:40.842Z,18.80
2018-10-02T21:16:09.761Z,18.80
2018-10-02T21:18:38.478Z,18.80
2018-10-02T21:21:07.950Z,18.70
2018-10-02T21:23:36.727Z,18.70
2018-10-02T21:26:05.422Z,18.70
2018-10-02T21:28:34.225Z,18.80
2018-10-02T21:31:02.892Z,18.70
2018-10-02T21:33:31.670Z,18.70
2018-10-02T21:36:00.564Z,18.70
2018-10-02T21:38:29.552Z,18.70
2018-10-02T21:40:58.400Z,18.70
2018-10-02T21:43:27.196Z,18.70
2018-10-02T21:45:56.045Z,18.70
2018-10-02T21:48:24.973Z,18.70
2018-10-02T21:50:53.922Z,18.70
2018-10-02T21:53:22.602Z,18.70
2018-10-02T21:55:51.302Z,18.70
2018-10-02T21:58:20.185Z,18.70
2018-10-02T22:00:48.971Z,18.70
2018-10-02T22:03:17.599Z,18.70
2018-10-02T22:05:46.775Z,18.70
2018-10-02T22:08:15.963Z,18.70
2018-10-02T22:10:44.832Z,18.70
2018-10-02T22:13:13.972Z,18.70
2018-10-02T22:15:42.944Z,18.70
2018-10-02T22:18:11.884Z,18.70
2018-10-02T22:20:40.754Z,18.70
2018-10-02T22:23:09.651Z,18.70
2018-10-02T22:25:38.623Z,18.70
2018-10-02T22:28:07.618Z,18.70
2018-10-02T22:30:36.591Z,18.70
2018-10-02T22:33:05.674Z,18.70
2018-10-02T22:35:34.593Z,18.70
2018-10-02T22:38:03.503Z,18.70
2018-10-02T22:40:32.378Z,18.70
2018-10-02T22:43:01.365Z,18.70
2018-10-02T22:45:30.372Z,18.70
2018-10-02T22:47:59.242Z,18.70
2018-10-02T22:50:28.493Z,18.70
2018-10-02T22:52:57.359Z,18.60
2018-10-02T22:55:26.258Z,18.60
2018-10-02T22:57:55.243Z,18.70
2018-10-02T23:00:24.385Z,18.70
2018-10-02T23:02:53.500Z,18.70
2018-10-02T23:05:22.216Z,18.70
2018-10-02T23:07:51.001Z,18.60
2018-10-02T23:10:19.818Z,18.70
2018-10-02T23:12:48.840Z,18.60
2018-10-02T23:15:17.878Z,18.60
2018-10-02T23:17:46.692Z,18.70
2018-10-02T23:20:15.481Z,18.70
2018-10-02T23:22:44.309Z,18.70
2018-10-02T23:25:13.188Z,18.60
2018-10-02T23:27:42.259Z,18.70
2018-10-02T23:30:11.066Z,18.70
2018-10-02T23:32:39.829Z,18.70
2018-10-02T23:35:08.701Z,18.70
2018-10-02T23:37:37.465Z,18.60
2018-10-02T23:40:06.177Z,18.70
2018-10-02T23:42:34.993Z,18.60
2018-10-02T23:45:03.724Z,18.60
2018-10-02T23:47:32.713Z,18.70
2018-10-02T23:50:01.567Z,18.70
2018-10-02T23:52:30.360Z,18.70
2018-10-02T23:54:59.117Z,18.70
2018-10-02T23:57:27.926Z,18.70
2018-10-02T23:59:56.587Z,18.70
